Wichita, KS (67218)

9:53 PM CST on December 25, 2014 (GMT -0600)
Peach Tree | Change Station
CLOSE
Current Station
Personal Weather Station
Location: Eastborough, KS
Elevation: 1368 ft
Nearby Weather Stations

Elev 1368 ft 37.68 °N, 97.26 °W | Updated 3 minutes ago

Partly Cloudy
Partly Cloudy
48.9 °F
Feels Like 49 °F
N
2.0
Wind Variable Wind from SE
Gusts 10.0 mph

Today
High -- | Low -- °F
--% Chance of Precip.
Yesterday
High -- | Low -- °F
Precip. -- in
7:42 AM 5:16 PM
Waxing Crescent, 22% visible
Pressure 29.77 in
Visibility 10.0 miles
Clouds Clear
Windchill 49 °F
Dew Point 31 °F
Humidity 50%
Rainfall 0.00 in
Snow Depth Not available.
UV 0.0 out of 12
Pollen .10 out of 12
Air Quality Not available.
Flu Activity Not available.
METAR KIAB 260258Z AUTO 18010KT 10SM CLR 09/M02 A2975 RMK AO2 SLP081 T00941022 52024

More Conditions Fewer Conditions

Pressure 29.77 in
Visibility 10.0 miles
Clouds Clear
Windchill 49 °F
Dew Point 31 °F
Humidity 50%
Rainfall 0.00 in
Snow Depth Not available.
UV 0.0 out of 12
Pollen .10 out of 12
Air Quality Not available.
Flu Activity Not available.
METAR KIAB 260258Z AUTO 18010KT 10SM CLR 09/M02 A2975 RMK AO2 SLP081 T00941022 52024

More Conditions Fewer Conditions

10-Day Weather Forecast

Almanac

Astronomy

Dec. 25, 2014 Rise Set
Actual Time
Civil Twilight
Nautical Twilight
Astronomical Twilight
Moon
Length of Visible Light
Length of Day
Tomorrow will be .
, % of the Moon is Illuminated

Today's Extremes

State Highs State Lows

Community

WunderPhotos

Upload Photos

1,780,534 photos uploaded!

WunderBlogs® & News

Nearby

Air Quality

  Air Quality AQ Index Pollutant
Not available.

Snow Depth

Station Depth Elevation

Earthquake Activity

City Distance Mag. Time & Date
Minimum magnitude displayed is 2.5.

Coastal Water Temperatures

Place Temperature

Nearby Weather Stations